sensor_id;sensor_type;location;lat;lon;timestamp;P1;durP1;ratioP1;P2;durP2;ratioP2
75218;SDS011;63801;49.414;19.474;2023-09-18T00:00:29;17.30;;;11.77;;
75218;SDS011;63801;49.414;19.474;2023-09-18T00:02:30;16.95;;;10.90;;
75218;SDS011;63801;49.414;19.474;2023-09-18T00:04:31;17.25;;;11.05;;
75218;SDS011;63801;49.414;19.474;2023-09-18T00:06:32;19.02;;;11.25;;
75218;SDS011;63801;49.414;19.474;2023-09-18T00:08:33;17.50;;;10.30;;
75218;SDS011;63801;49.414;19.474;2023-09-18T00:10:33;16.80;;;10.88;;
75218;SDS011;63801;49.414;19.474;2023-09-18T00:12:34;18.35;;;11.10;;
75218;SDS011;63801;49.414;19.474;2023-09-18T00:14:34;19.58;;;10.98;;
75218;SDS011;63801;49.414;19.474;2023-09-18T00:16:35;20.58;;;11.93;;
75218;SDS011;63801;49.414;19.474;2023-09-18T00:18:35;20.45;;;11.20;;
75218;SDS011;63801;49.414;19.474;2023-09-18T00:20:36;18.10;;;11.13;;
75218;SDS011;63801;49.414;19.474;2023-09-18T00:22:36;18.52;;;12.40;;
75218;SDS011;63801;49.414;19.474;2023-09-18T00:24:36;16.83;;;11.60;;
75218;SDS011;63801;49.414;19.474;2023-09-18T00:26:37;16.60;;;11.70;;
75218;SDS011;63801;49.414;19.474;2023-09-18T00:28:37;20.42;;;12.35;;
75218;SDS011;63801;49.414;19.474;2023-09-18T00:30:38;19.20;;;12.30;;
75218;SDS011;63801;49.414;19.474;2023-09-18T00:32:43;20.85;;;13.15;;
75218;SDS011;63801;49.414;19.474;2023-09-18T00:34:43;21.63;;;12.90;;
75218;SDS011;63801;49.414;19.474;2023-09-18T00:36:43;19.35;;;13.25;;
75218;SDS011;63801;49.414;19.474;2023-09-18T00:38:44;21.52;;;13.38;;
75218;SDS011;63801;49.414;19.474;2023-09-18T00:40:44;19.98;;;12.30;;
75218;SDS011;63801;49.414;19.474;2023-09-18T00:42:45;18.48;;;12.25;;
75218;SDS011;63801;49.414;19.474;2023-09-18T00:44:45;20.15;;;12.77;;
75218;SDS011;63801;49.414;19.474;2023-09-18T00:46:45;21.35;;;13.55;;
75218;SDS011;63801;49.414;19.474;2023-09-18T00:48:46;21.08;;;13.68;;
75218;SDS011;63801;49.414;19.474;2023-09-18T00:50:47;20.75;;;12.70;;
75218;SDS011;63801;49.414;19.474;2023-09-18T00:52:48;21.92;;;13.77;;
75218;SDS011;63801;49.414;19.474;2023-09-18T00:54:49;23.02;;;14.82;;
75218;SDS011;63801;49.414;19.474;2023-09-18T00:56:51;21.55;;;13.88;;
75218;SDS011;63801;49.414;19.474;2023-09-18T00:58:54;23.80;;;15.18;;
75218;SDS011;63801;49.414;19.474;2023-09-18T01:00:55;22.17;;;14.52;;
75218;SDS011;63801;49.414;19.474;2023-09-18T01:02:56;26.77;;;15.10;;
75218;SDS011;63801;49.414;19.474;2023-09-18T01:04:56;24.10;;;13.63;;
75218;SDS011;63801;49.414;19.474;2023-09-18T01:06:58;23.08;;;14.73;;
75218;SDS011;63801;49.414;19.474;2023-09-18T01:09:04;21.17;;;13.73;;
75218;SDS011;63801;49.414;19.474;2023-09-18T01:13:38;20.13;;;13.73;;
75218;SDS011;63801;49.414;19.474;2023-09-18T01:15:48;23.23;;;14.52;;
75218;SDS011;63801;49.414;19.474;2023-09-18T01:17:55;21.45;;;13.93;;
75218;SDS011;63801;49.414;19.474;2023-09-18T01:19:56;22.77;;;14.85;;
75218;SDS011;63801;49.414;19.474;2023-09-18T01:21:56;20.17;;;14.13;;
75218;SDS011;63801;49.414;19.474;2023-09-18T01:23:56;25.25;;;14.00;;
75218;SDS011;63801;49.414;19.474;2023-09-18T01:25:57;22.92;;;14.05;;
75218;SDS011;63801;49.414;19.474;2023-09-18T01:27:57;23.48;;;14.50;;
75218;SDS011;63801;49.414;19.474;2023-09-18T01:29:57;23.35;;;14.35;;
75218;SDS011;63801;49.414;19.474;2023-09-18T01:31:58;21.35;;;13.70;;
75218;SDS011;63801;49.414;19.474;2023-09-18T01:33:58;24.52;;;14.90;;
75218;SDS011;63801;49.414;19.474;2023-09-18T01:35:59;25.80;;;15.00;;
75218;SDS011;63801;49.414;19.474;2023-09-18T01:38:01;25.07;;;14.47;;
75218;SDS011;63801;49.414;19.474;2023-09-18T01:40:03;24.17;;;14.70;;
75218;SDS011;63801;49.414;19.474;2023-09-18T01:42:06;26.45;;;14.98;;
75218;SDS011;63801;49.414;19.474;2023-09-18T01:44:09;25.33;;;14.93;;
75218;SDS011;63801;49.414;19.474;2023-09-18T01:46:09;26.30;;;14.80;;
75218;SDS011;63801;49.414;19.474;2023-09-18T01:48:10;26.15;;;15.05;;
75218;SDS011;63801;49.414;19.474;2023-09-18T01:50:11;25.65;;;14.48;;
75218;SDS011;63801;49.414;19.474;2023-09-18T01:52:11;25.98;;;14.23;;
75218;SDS011;63801;49.414;19.474;2023-09-18T01:54:11;22.88;;;14.52;;
75218;SDS011;63801;49.414;19.474;2023-09-18T01:56:12;25.45;;;14.93;;
75218;SDS011;63801;49.414;19.474;2023-09-18T01:58:12;27.73;;;16.42;;
75218;SDS011;63801;49.414;19.474;2023-09-18T02:00:14;28.23;;;16.42;;
75218;SDS011;63801;49.414;19.474;2023-09-18T02:02:15;26.30;;;15.88;;
75218;SDS011;63801;49.414;19.474;2023-09-18T02:04:15;22.85;;;14.25;;
75218;SDS011;63801;49.414;19.474;2023-09-18T02:06:17;24.80;;;14.75;;
75218;SDS011;63801;49.414;19.474;2023-09-18T02:08:17;27.10;;;15.50;;
75218;SDS011;63801;49.414;19.474;2023-09-18T02:10:17;27.25;;;16.83;;
75218;SDS011;63801;49.414;19.474;2023-09-18T02:12:18;27.75;;;16.30;;
75218;SDS011;63801;49.414;19.474;2023-09-18T02:14:18;26.40;;;16.05;;
75218;SDS011;63801;49.414;19.474;2023-09-18T02:16:19;27.40;;;16.00;;
75218;SDS011;63801;49.414;19.474;2023-09-18T02:18:24;23.02;;;15.35;;
75218;SDS011;63801;49.414;19.474;2023-09-18T02:20:24;28.38;;;16.85;;
75218;SDS011;63801;49.414;19.474;2023-09-18T02:22:24;25.38;;;14.75;;
75218;SDS011;63801;49.414;19.474;2023-09-18T02:24:25;28.15;;;16.25;;
75218;SDS011;63801;49.414;19.474;2023-09-18T02:26:25;25.10;;;15.65;;
75218;SDS011;63801;49.414;19.474;2023-09-18T02:28:26;27.58;;;16.38;;
75218;SDS011;63801;49.414;19.474;2023-09-18T02:30:26;24.50;;;16.17;;
75218;SDS011;63801;49.414;19.474;2023-09-18T02:32:26;25.98;;;16.17;;
75218;SDS011;63801;49.414;19.474;2023-09-18T02:34:26;29.08;;;15.88;;
75218;SDS011;63801;49.414;19.474;2023-09-18T02:36:27;26.25;;;15.00;;
75218;SDS011;63801;49.414;19.474;2023-09-18T02:38:30;25.55;;;15.18;;
75218;SDS011;63801;49.414;19.474;2023-09-18T02:40:30;27.02;;;16.50;;
75218;SDS011;63801;49.414;19.474;2023-09-18T02:42:30;24.52;;;15.05;;
75218;SDS011;63801;49.414;19.474;2023-09-18T02:44:31;28.70;;;17.00;;
75218;SDS011;63801;49.414;19.474;2023-09-18T02:46:31;27.83;;;15.70;;
75218;SDS011;63801;49.414;19.474;2023-09-18T02:48:32;25.30;;;15.55;;
75218;SDS011;63801;49.414;19.474;2023-09-18T02:50:32;25.35;;;15.38;;
75218;SDS011;63801;49.414;19.474;2023-09-18T02:52:32;27.90;;;15.68;;
75218;SDS011;63801;49.414;19.474;2023-09-18T02:54:33;25.73;;;15.27;;
75218;SDS011;63801;49.414;19.474;2023-09-18T02:56:33;27.60;;;15.50;;
75218;SDS011;63801;49.414;19.474;2023-09-18T02:58:33;24.38;;;15.43;;
75218;SDS011;63801;49.414;19.474;2023-09-18T03:00:34;25.38;;;15.48;;
75218;SDS011;63801;49.414;19.474;2023-09-18T03:02:34;28.27;;;15.85;;
75218;SDS011;63801;49.414;19.474;2023-09-18T03:04:35;28.35;;;15.65;;
75218;SDS011;63801;49.414;19.474;2023-09-18T03:06:38;27.58;;;16.23;;
75218;SDS011;63801;49.414;19.474;2023-09-18T03:08:39;25.67;;;15.32;;
75218;SDS011;63801;49.414;19.474;2023-09-18T03:10:40;27.77;;;16.33;;
75218;SDS011;63801;49.414;19.474;2023-09-18T03:12:42;27.77;;;16.52;;
75218;SDS011;63801;49.414;19.474;2023-09-18T03:14:42;33.85;;;17.52;;
75218;SDS011;63801;49.414;19.474;2023-09-18T03:16:43;34.67;;;17.55;;
75218;SDS011;63801;49.414;19.474;2023-09-18T03:18:43;32.97;;;17.42;;
75218;SDS011;63801;49.414;19.474;2023-09-18T03:20:43;41.15;;;19.00;;
75218;SDS011;63801;49.414;19.474;2023-09-18T03:22:44;37.92;;;17.33;;
75218;SDS011;63801;49.414;19.474;2023-09-18T03:24:44;46.13;;;19.55;;
75218;SDS011;63801;49.414;19.474;2023-09-18T03:26:44;136.95;;;22.63;;
75218;SDS011;63801;49.414;19.474;2023-09-18T03:28:45;133.50;;;23.70;;
75218;SDS011;63801;49.414;19.474;2023-09-18T03:30:45;388.13;;;26.85;;
75218;SDS011;63801;49.414;19.474;2023-09-18T03:32:45;398.20;;;27.02;;
75218;SDS011;63801;49.414;19.474;2023-09-18T03:34:50;342.08;;;24.83;;
75218;SDS011;63801;49.414;19.474;2023-09-18T03:36:51;203.38;;;23.00;;
75218;SDS011;63801;49.414;19.474;2023-09-18T03:38:51;383.05;;;27.25;;
75218;SDS011;63801;49.414;19.474;2023-09-18T03:40:52;395.23;;;28.00;;
75218;SDS011;63801;49.414;19.474;2023-09-18T03:42:52;358.48;;;26.98;;
75218;SDS011;63801;49.414;19.474;2023-09-18T03:44:52;353.05;;;27.30;;
75218;SDS011;63801;49.414;19.474;2023-09-18T03:46:53;295.17;;;25.65;;
75218;SDS011;63801;49.414;19.474;2023-09-18T03:48:53;191.05;;;22.30;;
75218;SDS011;63801;49.414;19.474;2023-09-18T03:50:55;310.00;;;25.10;;
75218;SDS011;63801;49.414;19.474;2023-09-18T03:52:55;294.42;;;24.48;;
75218;SDS011;63801;49.414;19.474;2023-09-18T03:54:55;170.65;;;22.67;;
75218;SDS011;63801;49.414;19.474;2023-09-18T03:56:57;77.38;;;20.45;;
75218;SDS011;63801;49.414;19.474;2023-09-18T03:58:57;73.10;;;20.92;;
75218;SDS011;63801;49.414;19.474;2023-09-18T04:01:01;99.15;;;21.50;;
75218;SDS011;63801;49.414;19.474;2023-09-18T04:03:02;87.72;;;20.45;;
75218;SDS011;63801;49.414;19.474;2023-09-18T04:05:02;80.85;;;21.23;;
75218;SDS011;63801;49.414;19.474;2023-09-18T04:07:06;187.32;;;23.33;;
75218;SDS011;63801;49.414;19.474;2023-09-18T04:09:07;98.82;;;21.65;;
75218;SDS011;63801;49.414;19.474;2023-09-18T04:11:09;126.95;;;20.50;;
75218;SDS011;63801;49.414;19.474;2023-09-18T04:13:10;139.82;;;22.40;;
75218;SDS011;63801;49.414;19.474;2023-09-18T04:15:12;297.23;;;26.42;;
75218;SDS011;63801;49.414;19.474;2023-09-18T04:17:14;175.27;;;24.17;;
75218;SDS011;63801;49.414;19.474;2023-09-18T04:19:15;141.13;;;22.48;;
75218;SDS011;63801;49.414;19.474;2023-09-18T04:21:15;93.95;;;20.38;;
75218;SDS011;63801;49.414;19.474;2023-09-18T04:23:19;77.25;;;20.08;;
75218;SDS011;63801;49.414;19.474;2023-09-18T04:25:22;185.43;;;22.88;;
75218;SDS011;63801;49.414;19.474;2023-09-18T04:27:22;98.22;;;20.83;;
75218;SDS011;63801;49.414;19.474;2023-09-18T04:29:22;207.90;;;23.95;;
75218;SDS011;63801;49.414;19.474;2023-09-18T04:31:23;120.25;;;21.63;;
75218;SDS011;63801;49.414;19.474;2023-09-18T04:33:23;73.82;;;19.58;;
75218;SDS011;63801;49.414;19.474;2023-09-18T04:35:25;84.50;;;20.13;;
75218;SDS011;63801;49.414;19.474;2023-09-18T04:37:25;133.98;;;22.73;;
75218;SDS011;63801;49.414;19.474;2023-09-18T04:39:26;127.47;;;21.40;;
75218;SDS011;63801;49.414;19.474;2023-09-18T04:41:26;85.13;;;21.67;;
75218;SDS011;63801;49.414;19.474;2023-09-18T04:43:26;53.00;;;21.60;;
75218;SDS011;63801;49.414;19.474;2023-09-18T04:45:30;217.68;;;24.75;;
75218;SDS011;63801;49.414;19.474;2023-09-18T04:47:30;136.35;;;23.83;;
75218;SDS011;63801;49.414;19.474;2023-09-18T04:49:31;165.98;;;22.92;;
75218;SDS011;63801;49.414;19.474;2023-09-18T04:51:31;139.30;;;24.92;;
75218;SDS011;63801;49.414;19.474;2023-09-18T04:53:33;114.95;;;23.17;;
75218;SDS011;63801;49.414;19.474;2023-09-18T04:55:33;115.53;;;22.88;;
75218;SDS011;63801;49.414;19.474;2023-09-18T04:57:33;363.05;;;29.00;;
75218;SDS011;63801;49.414;19.474;2023-09-18T04:59:34;254.50;;;26.00;;
75218;SDS011;63801;49.414;19.474;2023-09-18T05:01:34;328.75;;;28.60;;
75218;SDS011;63801;49.414;19.474;2023-09-18T05:03:34;350.48;;;29.23;;
75218;SDS011;63801;49.414;19.474;2023-09-18T05:05:36;157.45;;;22.38;;
75218;SDS011;63801;49.414;19.474;2023-09-18T05:07:36;124.13;;;22.75;;
75218;SDS011;63801;49.414;19.474;2023-09-18T05:09:37;154.65;;;24.48;;
75218;SDS011;63801;49.414;19.474;2023-09-18T05:11:38;139.88;;;22.42;;
75218;SDS011;63801;49.414;19.474;2023-09-18T05:13:41;183.73;;;25.48;;
75218;SDS011;63801;49.414;19.474;2023-09-18T05:15:42;179.73;;;24.20;;
75218;SDS011;63801;49.414;19.474;2023-09-18T05:17:43;214.25;;;24.30;;
75218;SDS011;63801;49.414;19.474;2023-09-18T05:19:46;229.10;;;24.02;;
75218;SDS011;63801;49.414;19.474;2023-09-18T05:21:46;150.02;;;22.95;;
75218;SDS011;63801;49.414;19.474;2023-09-18T05:23:48;237.88;;;23.27;;
75218;SDS011;63801;49.414;19.474;2023-09-18T05:25:48;156.02;;;22.15;;
75218;SDS011;63801;49.414;19.474;2023-09-18T05:27:49;136.82;;;20.67;;
75218;SDS011;63801;49.414;19.474;2023-09-18T05:29:55;272.92;;;22.08;;
75218;SDS011;63801;49.414;19.474;2023-09-18T05:31:55;132.48;;;20.30;;
75218;SDS011;63801;49.414;19.474;2023-09-18T05:33:55;242.07;;;19.55;;
75218;SDS011;63801;49.414;19.474;2023-09-18T05:35:56;232.75;;;21.38;;
75218;SDS011;63801;49.414;19.474;2023-09-18T05:37:57;207.57;;;20.40;;
75218;SDS011;63801;49.414;19.474;2023-09-18T05:39:59;211.20;;;20.13;;
75218;SDS011;63801;49.414;19.474;2023-09-18T05:42:00;229.60;;;20.63;;
75218;SDS011;63801;49.414;19.474;2023-09-18T05:44:00;171.32;;;19.77;;
75218;SDS011;63801;49.414;19.474;2023-09-18T05:46:03;132.73;;;17.55;;
75218;SDS011;63801;49.414;19.474;2023-09-18T05:48:04;125.57;;;15.48;;
75218;SDS011;63801;49.414;19.474;2023-09-18T05:50:13;125.35;;;14.68;;
75218;SDS011;63801;49.414;19.474;2023-09-18T05:52:15;333.50;;;20.55;;
75218;SDS011;63801;49.414;19.474;2023-09-18T05:54:16;172.60;;;14.90;;
75218;SDS011;63801;49.414;19.474;2023-09-18T05:56:16;235.77;;;16.48;;
75218;SDS011;63801;49.414;19.474;2023-09-18T05:58:17;120.85;;;15.40;;
75218;SDS011;63801;49.414;19.474;2023-09-18T06:00:22;141.48;;;15.88;;
75218;SDS011;63801;49.414;19.474;2023-09-18T06:02:22;111.75;;;14.10;;
75218;SDS011;63801;49.414;19.474;2023-09-18T06:04:24;193.15;;;14.95;;
75218;SDS011;63801;49.414;19.474;2023-09-18T06:06:25;173.88;;;15.40;;
75218;SDS011;63801;49.414;19.474;2023-09-18T06:08:25;212.57;;;15.27;;
75218;SDS011;63801;49.414;19.474;2023-09-18T06:10:26;107.13;;;13.52;;
75218;SDS011;63801;49.414;19.474;2023-09-18T06:12:26;152.77;;;13.95;;
75218;SDS011;63801;49.414;19.474;2023-09-18T06:14:26;241.98;;;15.02;;
75218;SDS011;63801;49.414;19.474;2023-09-18T06:16:27;131.45;;;13.95;;
75218;SDS011;63801;49.414;19.474;2023-09-18T06:18:27;111.47;;;13.20;;
75218;SDS011;63801;49.414;19.474;2023-09-18T06:20:27;209.35;;;15.13;;
75218;SDS011;63801;49.414;19.474;2023-09-18T06:22:28;157.85;;;13.50;;
75218;SDS011;63801;49.414;19.474;2023-09-18T06:24:28;154.40;;;14.48;;
75218;SDS011;63801;49.414;19.474;2023-09-18T06:26:29;157.55;;;12.82;;
75218;SDS011;63801;49.414;19.474;2023-09-18T06:28:29;144.10;;;12.77;;
75218;SDS011;63801;49.414;19.474;2023-09-18T06:30:30;142.75;;;12.45;;
75218;SDS011;63801;49.414;19.474;2023-09-18T06:32:34;129.35;;;12.15;;
75218;SDS011;63801;49.414;19.474;2023-09-18T06:34:36;198.63;;;13.45;;
75218;SDS011;63801;49.414;19.474;2023-09-18T06:36:38;52.13;;;11.27;;
75218;SDS011;63801;49.414;19.474;2023-09-18T06:38:38;85.82;;;11.10;;
75218;SDS011;63801;49.414;19.474;2023-09-18T06:40:38;243.93;;;14.65;;
75218;SDS011;63801;49.414;19.474;2023-09-18T06:42:39;115.95;;;12.25;;
75218;SDS011;63801;49.414;19.474;2023-09-18T06:44:39;129.93;;;11.77;;
75218;SDS011;63801;49.414;19.474;2023-09-18T06:46:40;98.55;;;10.93;;
75218;SDS011;63801;49.414;19.474;2023-09-18T06:48:40;68.80;;;10.60;;
75218;SDS011;63801;49.414;19.474;2023-09-18T06:50:45;43.63;;;10.85;;
75218;SDS011;63801;49.414;19.474;2023-09-18T06:52:45;69.38;;;9.90;;
75218;SDS011;63801;49.414;19.474;2023-09-18T06:54:46;59.03;;;9.70;;
75218;SDS011;63801;49.414;19.474;2023-09-18T06:56:46;78.00;;;9.98;;
75218;SDS011;63801;49.414;19.474;2023-09-18T06:58:47;54.25;;;10.07;;
75218;SDS011;63801;49.414;19.474;2023-09-18T07:00:48;97.05;;;10.10;;
75218;SDS011;63801;49.414;19.474;2023-09-18T07:02:50;82.43;;;10.20;;
75218;SDS011;63801;49.414;19.474;2023-09-18T07:04:50;189.75;;;13.35;;
75218;SDS011;63801;49.414;19.474;2023-09-18T07:06:51;48.53;;;11.85;;
75218;SDS011;63801;49.414;19.474;2023-09-18T07:08:53;93.88;;;11.30;;
75218;SDS011;63801;49.414;19.474;2023-09-18T07:10:53;54.30;;;12.35;;
75218;SDS011;63801;49.414;19.474;2023-09-18T07:12:54;74.72;;;12.52;;
75218;SDS011;63801;49.414;19.474;2023-09-18T07:14:54;71.07;;;12.43;;
75218;SDS011;63801;49.414;19.474;2023-09-18T07:16:54;72.15;;;11.68;;
75218;SDS011;63801;49.414;19.474;2023-09-18T07:18:55;67.38;;;11.23;;
75218;SDS011;63801;49.414;19.474;2023-09-18T07:20:55;75.00;;;10.65;;
75218;SDS011;63801;49.414;19.474;2023-09-18T07:22:55;32.47;;;9.98;;
75218;SDS011;63801;49.414;19.474;2023-09-18T07:24:56;38.30;;;9.70;;
75218;SDS011;63801;49.414;19.474;2023-09-18T07:26:56;40.25;;;10.65;;
75218;SDS011;63801;49.414;19.474;2023-09-18T07:29:00;29.02;;;9.02;;
75218;SDS011;63801;49.414;19.474;2023-09-18T07:31:07;17.00;;;8.43;;
75218;SDS011;63801;49.414;19.474;2023-09-18T07:33:12;17.20;;;8.07;;
75218;SDS011;63801;49.414;19.474;2023-09-18T07:35:15;10.88;;;7.45;;
75218;SDS011;63801;49.414;19.474;2023-09-18T07:37:15;23.25;;;8.15;;
75218;SDS011;63801;49.414;19.474;2023-09-18T07:39:20;13.77;;;8.32;;
75218;SDS011;63801;49.414;19.474;2023-09-18T07:41:21;14.60;;;7.38;;
75218;SDS011;63801;49.414;19.474;2023-09-18T07:43:23;13.45;;;8.15;;
75218;SDS011;63801;49.414;19.474;2023-09-18T07:45:24;14.07;;;7.70;;
75218;SDS011;63801;49.414;19.474;2023-09-18T07:47:25;11.90;;;7.40;;
75218;SDS011;63801;49.414;19.474;2023-09-18T07:49:25;10.43;;;7.78;;
75218;SDS011;63801;49.414;19.474;2023-09-18T07:51:26;11.60;;;8.50;;
75218;SDS011;63801;49.414;19.474;2023-09-18T07:53:26;10.57;;;7.70;;
75218;SDS011;63801;49.414;19.474;2023-09-18T07:55:27;11.27;;;8.18;;
75218;SDS011;63801;49.414;19.474;2023-09-18T07:57:28;11.35;;;8.30;;
75218;SDS011;63801;49.414;19.474;2023-09-18T07:59:30;12.55;;;8.27;;
75218;SDS011;63801;49.414;19.474;2023-09-18T08:01:30;12.25;;;8.70;;
75218;SDS011;63801;49.414;19.474;2023-09-18T08:03:32;11.65;;;7.75;;
75218;SDS011;63801;49.414;19.474;2023-09-18T08:05:32;10.82;;;8.57;;
75218;SDS011;63801;49.414;19.474;2023-09-18T08:07:33;12.00;;;8.23;;
75218;SDS011;63801;49.414;19.474;2023-09-18T08:09:35;12.40;;;7.95;;
75218;SDS011;63801;49.414;19.474;2023-09-18T08:11:38;10.80;;;8.50;;
75218;SDS011;63801;49.414;19.474;2023-09-18T08:13:42;11.38;;;8.98;;
75218;SDS011;63801;49.414;19.474;2023-09-18T08:15:42;11.18;;;8.40;;
75218;SDS011;63801;49.414;19.474;2023-09-18T08:17:43;12.23;;;9.13;;
75218;SDS011;63801;49.414;19.474;2023-09-18T08:19:43;11.70;;;8.73;;
75218;SDS011;63801;49.414;19.474;2023-09-18T08:21:44;12.20;;;8.20;;
75218;SDS011;63801;49.414;19.474;2023-09-18T08:23:44;9.40;;;7.72;;
75218;SDS011;63801;49.414;19.474;2023-09-18T08:25:45;12.02;;;8.82;;
75218;SDS011;63801;49.414;19.474;2023-09-18T08:27:47;13.70;;;9.18;;
75218;SDS011;63801;49.414;19.474;2023-09-18T08:29:48;10.25;;;8.57;;
75218;SDS011;63801;49.414;19.474;2023-09-18T08:31:48;12.02;;;8.95;;
75218;SDS011;63801;49.414;19.474;2023-09-18T08:35:50;12.90;;;9.18;;
75218;SDS011;63801;49.414;19.474;2023-09-18T08:37:51;9.98;;;8.90;;
75218;SDS011;63801;49.414;19.474;2023-09-18T08:39:51;11.93;;;9.70;;
75218;SDS011;63801;49.414;19.474;2023-09-18T08:41:52;11.63;;;9.57;;
75218;SDS011;63801;49.414;19.474;2023-09-18T08:44:01;13.45;;;9.75;;
75218;SDS011;63801;49.414;19.474;2023-09-18T08:46:03;12.77;;;9.57;;
75218;SDS011;63801;49.414;19.474;2023-09-18T08:48:04;13.27;;;9.80;;
75218;SDS011;63801;49.414;19.474;2023-09-18T08:50:06;13.27;;;10.10;;
75218;SDS011;63801;49.414;19.474;2023-09-18T08:52:09;9.43;;;7.68;;
75218;SDS011;63801;49.414;19.474;2023-09-18T08:54:10;13.32;;;8.10;;
75218;SDS011;63801;49.414;19.474;2023-09-18T08:56:11;10.68;;;7.75;;
75218;SDS011;63801;49.414;19.474;2023-09-18T08:58:12;12.35;;;9.15;;
75218;SDS011;63801;49.414;19.474;2023-09-18T09:00:13;12.50;;;8.02;;
75218;SDS011;63801;49.414;19.474;2023-09-18T09:02:16;9.63;;;6.60;;
75218;SDS011;63801;49.414;19.474;2023-09-18T09:04:17;11.23;;;7.78;;
75218;SDS011;63801;49.414;19.474;2023-09-18T09:06:18;15.82;;;8.35;;
75218;SDS011;63801;49.414;19.474;2023-09-18T09:08:20;9.32;;;6.90;;
75218;SDS011;63801;49.414;19.474;2023-09-18T09:10:21;8.50;;;5.95;;
75218;SDS011;63801;49.414;19.474;2023-09-18T09:17:06;7.53;;;6.05;;
75218;SDS011;63801;49.414;19.474;2023-09-18T09:19:07;8.45;;;6.10;;
75218;SDS011;63801;49.414;19.474;2023-09-18T09:21:07;10.15;;;6.00;;
75218;SDS011;63801;49.414;19.474;2023-09-18T09:23:08;8.07;;;5.65;;
75218;SDS011;63801;49.414;19.474;2023-09-18T09:25:25;8.97;;;6.07;;
75218;SDS011;63801;49.414;19.474;2023-09-18T09:27:27;10.40;;;6.20;;
75218;SDS011;63801;49.414;19.474;2023-09-18T09:29:27;8.23;;;5.90;;
75218;SDS011;63801;49.414;19.474;2023-09-18T09:31:29;8.18;;;5.95;;
75218;SDS011;63801;49.414;19.474;2023-09-18T09:35:32;9.70;;;5.68;;
75218;SDS011;63801;49.414;19.474;2023-09-18T09:37:33;10.52;;;6.90;;
75218;SDS011;63801;49.414;19.474;2023-09-18T09:39:34;9.40;;;6.15;;
75218;SDS011;63801;49.414;19.474;2023-09-18T09:41:34;9.30;;;6.63;;
75218;SDS011;63801;49.414;19.474;2023-09-18T09:43:35;7.75;;;5.90;;
75218;SDS011;63801;49.414;19.474;2023-09-18T09:45:36;9.68;;;6.30;;
75218;SDS011;63801;49.414;19.474;2023-09-18T09:47:36;8.57;;;6.43;;
75218;SDS011;63801;49.414;19.474;2023-09-18T09:49:47;12.27;;;7.00;;
75218;SDS011;63801;49.414;19.474;2023-09-18T09:51:48;8.10;;;6.18;;
75218;SDS011;63801;49.414;19.474;2023-09-18T09:53:48;11.20;;;6.80;;
75218;SDS011;63801;49.414;19.474;2023-09-18T09:55:54;9.82;;;6.78;;
75218;SDS011;63801;49.414;19.474;2023-09-18T09:57:56;9.68;;;6.57;;
75218;SDS011;63801;49.414;19.474;2023-09-18T10:00:06;11.45;;;6.70;;
75218;SDS011;63801;49.414;19.474;2023-09-18T10:02:22;9.60;;;6.50;;
75218;SDS011;63801;49.414;19.474;2023-09-18T10:04:23;9.65;;;6.57;;
75218;SDS011;63801;49.414;19.474;2023-09-18T10:06:26;8.50;;;6.60;;
75218;SDS011;63801;49.414;19.474;2023-09-18T10:08:30;10.73;;;6.63;;
75218;SDS011;63801;49.414;19.474;2023-09-18T10:10:34;8.98;;;6.82;;
75218;SDS011;63801;49.414;19.474;2023-09-18T10:12:37;8.63;;;6.68;;
75218;SDS011;63801;49.414;19.474;2023-09-18T10:23:28;9.57;;;6.65;;
75218;SDS011;63801;49.414;19.474;2023-09-18T10:25:44;11.27;;;6.80;;
75218;SDS011;63801;49.414;19.474;2023-09-18T10:27:46;12.45;;;6.68;;
75218;SDS011;63801;49.414;19.474;2023-09-18T10:29:54;9.65;;;7.00;;
75218;SDS011;63801;49.414;19.474;2023-09-18T10:31:55;12.45;;;7.03;;
75218;SDS011;63801;49.414;19.474;2023-09-18T10:33:57;11.80;;;7.13;;
75218;SDS011;63801;49.414;19.474;2023-09-18T10:35:59;7.88;;;5.20;;
75218;SDS011;63801;49.414;19.474;2023-09-18T10:38:01;9.85;;;6.70;;
75218;SDS011;63801;49.414;19.474;2023-09-18T10:40:03;8.13;;;6.07;;
75218;SDS011;63801;49.414;19.474;2023-09-18T10:42:08;8.48;;;6.00;;
75218;SDS011;63801;49.414;19.474;2023-09-18T10:44:09;12.00;;;6.00;;
75218;SDS011;63801;49.414;19.474;2023-09-18T10:46:14;8.93;;;6.45;;
75218;SDS011;63801;49.414;19.474;2023-09-18T10:48:14;9.77;;;5.95;;
75218;SDS011;63801;49.414;19.474;2023-09-18T10:50:25;8.32;;;5.88;;
75218;SDS011;63801;49.414;19.474;2023-09-18T10:52:26;8.38;;;5.97;;
75218;SDS011;63801;49.414;19.474;2023-09-18T10:54:27;9.00;;;5.82;;
75218;SDS011;63801;49.414;19.474;2023-09-18T10:56:30;13.52;;;5.78;;
75218;SDS011;63801;49.414;19.474;2023-09-18T10:58:33;9.55;;;6.10;;
75218;SDS011;63801;49.414;19.474;2023-09-18T11:00:38;14.50;;;5.88;;
75218;SDS011;63801;49.414;19.474;2023-09-18T11:02:41;10.15;;;5.78;;
75218;SDS011;63801;49.414;19.474;2023-09-18T11:04:42;8.93;;;5.90;;
75218;SDS011;63801;49.414;19.474;2023-09-18T11:09:01;10.45;;;6.07;;
75218;SDS011;63801;49.414;19.474;2023-09-18T11:11:07;9.25;;;5.75;;
75218;SDS011;63801;49.414;19.474;2023-09-18T11:13:14;8.90;;;5.97;;
75218;SDS011;63801;49.414;19.474;2023-09-18T11:15:31;8.90;;;5.63;;
75218;SDS011;63801;49.414;19.474;2023-09-18T11:19:40;9.95;;;5.63;;
75218;SDS011;63801;49.414;19.474;2023-09-18T11:21:42;12.07;;;5.82;;
75218;SDS011;63801;49.414;19.474;2023-09-18T11:23:43;8.50;;;6.10;;
75218;SDS011;63801;49.414;19.474;2023-09-18T11:25:44;9.85;;;5.60;;
75218;SDS011;63801;49.414;19.474;2023-09-18T11:27:54;8.38;;;6.10;;
75218;SDS011;63801;49.414;19.474;2023-09-18T11:29:55;9.07;;;5.90;;
75218;SDS011;63801;49.414;19.474;2023-09-18T11:31:59;7.22;;;5.38;;
75218;SDS011;63801;49.414;19.474;2023-09-18T11:34:03;8.43;;;5.70;;
75218;SDS011;63801;49.414;19.474;2023-09-18T11:36:12;9.25;;;5.72;;
75218;SDS011;63801;49.414;19.474;2023-09-18T11:38:14;9.93;;;6.05;;
75218;SDS011;63801;49.414;19.474;2023-09-18T11:40:31;8.75;;;5.65;;
75218;SDS011;63801;49.414;19.474;2023-09-18T11:42:44;9.15;;;6.20;;
75218;SDS011;63801;49.414;19.474;2023-09-18T11:45:19;8.40;;;5.25;;
75218;SDS011;63801;49.414;19.474;2023-09-18T11:47:23;9.90;;;5.23;;
75218;SDS011;63801;49.414;19.474;2023-09-18T11:49:26;7.68;;;5.75;;
75218;SDS011;63801;49.414;19.474;2023-09-18T11:51:27;9.75;;;4.85;;
75218;SDS011;63801;49.414;19.474;2023-09-18T11:53:28;9.85;;;5.47;;
75218;SDS011;63801;49.414;19.474;2023-09-18T11:55:33;6.82;;;4.85;;
75218;SDS011;63801;49.414;19.474;2023-09-18T11:57:37;9.55;;;6.30;;
75218;SDS011;63801;49.414;19.474;2023-09-18T11:59:38;7.53;;;5.20;;
75218;SDS011;63801;49.414;19.474;2023-09-18T12:01:41;9.23;;;6.05;;
75218;SDS011;63801;49.414;19.474;2023-09-18T12:03:43;8.52;;;5.13;;
75218;SDS011;63801;49.414;19.474;2023-09-18T12:05:45;11.52;;;6.93;;
75218;SDS011;63801;49.414;19.474;2023-09-18T12:07:45;9.60;;;5.63;;
75218;SDS011;63801;49.414;19.474;2023-09-18T12:09:47;8.07;;;5.60;;